createdAt,value
2023-02-03T00:02:04.481Z,96983.50
2023-02-03T00:04:31.559Z,96980.75
2023-02-03T00:06:58.595Z,96978.22
2023-02-03T00:09:25.990Z,96972.56
2023-02-03T00:11:54.069Z,96965.00
2023-02-03T00:14:21.086Z,96973.75
2023-02-03T00:16:48.163Z,96972.59
2023-02-03T00:19:17.326Z,96971.31
2023-02-03T00:21:44.881Z,96975.69
2023-02-03T00:24:12.103Z,96979.22
2023-02-03T00:26:43.756Z,96978.81
2023-02-03T00:29:11.555Z,96985.63
2023-02-03T00:31:38.587Z,96986.44
2023-02-03T00:34:05.861Z,96981.38
2023-02-03T00:36:33.134Z,96985.22
2023-02-03T00:39:01.060Z,96989.91
2023-02-03T00:41:31.690Z,96987.03
2023-02-03T00:43:58.874Z,96986.44
2023-02-03T00:46:25.957Z,96982.03
2023-02-03T00:48:52.959Z,96980.41
2023-02-03T00:51:20.068Z,96982.72
2023-02-03T00:53:48.081Z,96983.00
2023-02-03T00:56:15.410Z,96982.03
2023-02-03T00:58:42.637Z,96975.69
2023-02-03T01:01:10.487Z,96980.69
2023-02-03T01:03:38.238Z,96985.53
2023-02-03T01:06:15.386Z,96986.53
2023-02-03T01:08:42.872Z,96978.13
2023-02-03T01:11:12.277Z,96985.22
2023-02-03T01:13:39.825Z,96978.00
2023-02-03T01:16:10.243Z,96977.47
2023-02-03T01:18:38.082Z,96975.25
2023-02-03T01:21:07.636Z,96976.06
2023-02-03T01:23:35.665Z,96966.03
2023-02-03T01:26:07.906Z,96971.56
2023-02-03T01:28:35.533Z,96964.13
2023-02-03T01:31:13.948Z,96969.84
2023-02-03T01:33:41.706Z,96962.72
2023-02-03T01:36:10.098Z,96958.44
2023-02-03T01:38:38.515Z,96958.28
2023-02-03T01:41:07.749Z,96955.41
2023-02-03T01:43:41.185Z,96960.78
2023-02-03T01:46:16.958Z,96958.28
2023-02-03T01:48:44.512Z,96961.50
2023-02-03T01:51:11.486Z,96956.03
2023-02-03T01:53:39.542Z,96961.22
2023-02-03T01:56:07.758Z,96963.66
2023-02-03T01:58:37.376Z,96960.59
2023-02-03T02:01:04.474Z,96964.50
2023-02-03T02:03:37.133Z,96964.81
2023-02-03T02:06:10.263Z,96959.66
2023-02-03T02:08:42.526Z,96964.50
2023-02-03T02:11:09.648Z,96967.25
2023-02-03T02:13:37.552Z,96966.09
2023-02-03T02:16:39.365Z,96953.34
2023-02-03T02:19:30.009Z,96947.53
2023-02-03T02:22:14.945Z,96941.41
2023-02-03T02:25:11.125Z,96934.63
2023-02-03T02:28:09.780Z,96922.69
2023-02-03T02:30:59.812Z,96918.50
2023-02-03T02:33:44.164Z,96918.03
2023-02-03T02:36:30.555Z,96917.22
2023-02-03T02:39:19.265Z,96928.03
2023-02-03T02:42:01.677Z,96908.97
2023-02-03T02:45:11.128Z,96904.44
2023-02-03T02:47:39.149Z,96895.72
2023-02-03T02:50:07.164Z,96905.06
2023-02-03T02:52:39.196Z,96905.88
2023-02-03T02:55:19.746Z,96904.91
2023-02-03T02:57:48.329Z,96910.06
2023-02-03T03:00:18.584Z,96909.09
2023-02-03T03:02:45.526Z,96907.34
2023-02-03T03:05:13.010Z,96902.78
2023-02-03T03:07:54.172Z,96894.69
2023-02-03T03:10:27.840Z,96899.50
2023-02-03T03:13:01.948Z,96889.97
2023-02-03T03:15:32.927Z,96888.69
2023-02-03T03:18:14.465Z,96886.44
2023-02-03T03:20:44.484Z,96884.66
2023-02-03T03:23:19.224Z,96886.09
2023-02-03T03:26:04.658Z,96885.13
2023-02-03T03:28:40.674Z,96889.34
2023-02-03T03:31:07.912Z,96890.47
2023-02-03T03:33:34.946Z,96900.00
2023-02-03T03:36:25.713Z,96901.94
2023-02-03T03:39:22.674Z,96900.31
2023-02-03T03:42:01.575Z,96902.28
2023-02-03T03:44:37.814Z,96898.41
2023-02-03T03:47:15.744Z,96899.25
2023-02-03T03:49:47.332Z,96901.84
2023-02-03T03:52:20.430Z,96901.03
2023-02-03T03:54:50.143Z,96901.22
2023-02-03T03:57:23.499Z,96892.03
2023-02-03T03:59:51.409Z,96907.69
2023-02-03T04:02:20.958Z,96896.25
2023-02-03T04:04:49.366Z,96892.53
2023-02-03T04:07:16.617Z,96888.66
2023-02-03T04:09:43.679Z,96888.81
2023-02-03T04:12:24.028Z,96879.47
2023-02-03T04:14:51.129Z,96894.19
2023-02-03T04:17:20.442Z,96889.78
2023-02-03T04:19:48.686Z,96891.75
2023-02-03T04:22:15.467Z,96886.59
2023-02-03T04:24:42.404Z,96896.94
2023-02-03T04:27:09.365Z,96899.50
2023-02-03T04:29:36.317Z,96896.78
2023-02-03T04:32:03.352Z,96889.03
2023-02-03T04:34:30.391Z,96900.94
2023-02-03T04:36:57.355Z,96904.97
2023-02-03T04:39:24.379Z,96904.97
2023-02-03T04:41:51.334Z,96910.28
2023-02-03T04:44:18.409Z,96911.94
2023-02-03T04:46:45.311Z,96912.28
2023-02-03T04:49:12.315Z,96911.13
2023-02-03T04:51:39.317Z,96901.47
2023-02-03T04:54:06.365Z,96911.47
2023-02-03T04:56:33.305Z,96911.28
2023-02-03T04:59:00.244Z,96916.94
2023-02-03T05:01:27.373Z,96928.88
2023-02-03T05:03:54.369Z,96915.00
2023-02-03T05:06:33.128Z,96929.53
2023-02-03T05:09:00.132Z,96924.03
2023-02-03T05:11:27.266Z,96912.88
2023-02-03T05:13:54.905Z,96912.06
2023-02-03T05:16:22.023Z,96921.28
2023-02-03T05:18:49.061Z,96914.19
2023-02-03T05:21:16.235Z,96922.53
2023-02-03T05:23:43.265Z,96924.97
2023-02-03T05:26:10.234Z,96923.66
2023-02-03T05:28:37.303Z,96920.44
2023-02-03T05:31:04.637Z,96924.63
2023-02-03T05:33:32.716Z,96929.44
2023-02-03T05:35:59.774Z,96924.63
2023-02-03T05:38:26.842Z,96920.28
2023-02-03T05:41:12.623Z,96927.69
2023-02-03T05:43:39.595Z,96923.63
2023-02-03T05:46:07.631Z,96921.66
2023-02-03T05:48:35.075Z,96912.31
2023-02-03T05:51:02.252Z,96918.59
2023-02-03T05:53:29.500Z,96916.81
2023-02-03T05:55:56.427Z,96930.06
2023-02-03T05:58:23.378Z,96937.81
2023-02-03T06:00:50.398Z,96928.44
2023-02-03T06:03:17.438Z,96919.72
2023-02-03T06:05:45.189Z,96928.44
2023-02-03T06:08:12.298Z,96913.88
2023-02-03T06:10:39.351Z,96907.03
2023-02-03T06:13:15.336Z,96900.88
2023-02-03T06:15:42.930Z,96901.97
2023-02-03T06:18:10.035Z,96906.81
2023-02-03T06:20:37.218Z,96908.63
2023-02-03T06:23:04.231Z,96891.91
2023-02-03T06:25:32.855Z,96895.63
2023-02-03T06:28:00.398Z,96900.28
2023-02-03T06:30:27.845Z,96882.16
2023-02-03T06:32:55.466Z,96870.38
2023-02-03T06:35:22.597Z,96863.63
2023-02-03T06:37:49.792Z,96865.84
2023-02-03T06:40:16.796Z,96876.47
2023-02-03T06:42:47.793Z,96866.78
2023-02-03T06:45:15.866Z,96865.00
2023-02-03T06:47:44.117Z,96872.41
2023-02-03T06:50:12.532Z,96869.28
2023-02-03T06:52:39.570Z,96855.56
2023-02-03T06:55:07.374Z,96857.69
2023-02-03T06:57:34.895Z,96867.84
2023-02-03T07:00:02.155Z,96857.69
2023-02-03T07:02:29.287Z,96862.22
2023-02-03T07:04:56.214Z,96867.41
2023-02-03T07:07:23.198Z,96850.28
2023-02-03T07:09:50.202Z,96849.94
2023-02-03T07:12:17.218Z,96849.13
2023-02-03T07:14:44.262Z,96843.31
2023-02-03T07:17:11.332Z,96836.81
2023-02-03T07:19:38.432Z,96827.09
2023-02-03T07:22:05.343Z,96837.34
2023-02-03T07:24:32.355Z,96831.47
2023-02-03T07:26:59.339Z,96822.09
2023-02-03T07:29:26.354Z,96818.84
2023-02-03T07:31:53.422Z,96811.09
2023-02-03T07:34:20.484Z,96796.34
2023-02-03T07:36:47.455Z,96784.69
2023-02-03T07:39:14.425Z,96777.34
2023-02-03T07:41:41.358Z,96781.84
2023-02-03T07:44:09.617Z,96778.56
2023-02-03T07:46:39.995Z,96794.00
2023-02-03T07:49:07.248Z,96799.53
2023-02-03T07:51:34.221Z,96805.16
2023-02-03T07:54:01.155Z,96801.06
2023-02-03T07:56:28.305Z,96801.47
2023-02-03T07:58:55.252Z,96803.34
2023-02-03T08:01:22.240Z,96805.25
2023-02-03T08:03:49.267Z,96814.25
2023-02-03T08:06:16.622Z,96821.50
2023-02-03T08:08:44.173Z,96820.50
2023-02-03T08:11:11.487Z,96819.34
2023-02-03T08:13:38.501Z,96812.31
2023-02-03T08:16:05.963Z,96805.78
2023-02-03T08:18:33.015Z,96798.91
2023-02-03T08:21:00.872Z,96799.97
2023-02-03T08:23:27.784Z,96792.00
2023-02-03T08:25:54.751Z,96792.09
2023-02-03T08:28:21.817Z,96803.25
2023-02-03T08:30:48.929Z,96790.94
2023-02-03T08:33:15.936Z,96788.25
2023-02-03T08:35:47.618Z,96790.81
2023-02-03T08:38:14.865Z,96779.72
2023-02-03T08:40:41.913Z,96785.38
2023-02-03T08:43:09.294Z,96783.00
2023-02-03T08:45:36.356Z,96774.69
2023-02-03T08:48:03.463Z,96758.38
2023-02-03T08:50:30.970Z,96776.97
2023-02-03T08:52:58.306Z,96761.13
2023-02-03T08:55:25.314Z,96763.09
2023-02-03T08:57:52.342Z,96762.28
2023-02-03T09:00:19.932Z,96754.34
2023-02-03T09:02:46.976Z,96776.00
2023-02-03T09:05:14.282Z,96783.03
2023-02-03T09:07:41.254Z,96782.97
2023-02-03T09:10:08.675Z,96787.00
2023-02-03T09:12:35.646Z,96790.28
2023-02-03T09:15:02.601Z,96787.94
2023-02-03T09:17:29.574Z,96792.53
2023-02-03T09:19:56.509Z,96777.03
2023-02-03T09:22:23.513Z,96774.91
2023-02-03T09:24:51.594Z,96765.00
2023-02-03T09:27:18.607Z,96758.47
2023-02-03T09:29:45.531Z,96754.75
2023-02-03T09:32:15.122Z,96745.25
2023-02-03T09:34:42.588Z,96753.31
2023-02-03T09:37:10.338Z,96750.13
2023-02-03T09:39:37.483Z,96754.97
2023-02-03T09:42:25.921Z,96749.44
2023-02-03T09:45:07.894Z,96746.66
2023-02-03T09:47:39.541Z,96740.69
2023-02-03T09:50:12.754Z,96735.13
2023-02-03T09:52:42.064Z,96729.09
2023-02-03T09:55:20.577Z,96723.88
2023-02-03T09:57:57.278Z,96729.06
2023-02-03T10:00:30.409Z,96712.47
2023-02-03T10:03:26.724Z,96710.63
2023-02-03T10:05:59.324Z,96707.19
2023-02-03T10:08:54.641Z,96700.78
2023-02-03T10:11:37.496Z,96685.72
2023-02-03T10:14:35.331Z,96688.91
2023-02-03T10:17:08.693Z,96680.53
2023-02-03T10:19:57.361Z,96675.13
2023-02-03T10:22:28.854Z,96659.44
2023-02-03T10:25:21.117Z,96663.97
2023-02-03T10:27:49.464Z,96668.53
2023-02-03T10:30:33.420Z,96650.53
2023-02-03T10:33:11.439Z,96647.50
2023-02-03T10:36:10.693Z,96630.44
2023-02-03T10:39:01.609Z,96613.00
2023-02-03T10:41:30.437Z,96618.19
2023-02-03T10:43:58.743Z,96610.34
2023-02-03T10:46:35.696Z,96606.22
2023-02-03T10:49:02.768Z,96613.69
2023-02-03T10:51:55.911Z,96593.06
2023-02-03T10:54:48.923Z,96597.00
2023-02-03T10:57:16.745Z,96589.25
2023-02-03T10:59:47.175Z,96585.75
2023-02-03T11:02:30.181Z,96573.78
2023-02-03T11:05:11.785Z,96572.69
2023-02-03T11:07:38.773Z,96560.03
2023-02-03T11:10:28.789Z,96571.31
2023-02-03T11:13:21.497Z,96568.41
2023-02-03T11:16:04.114Z,96555.22
2023-02-03T11:18:55.700Z,96534.94
2023-02-03T11:21:26.552Z,96536.31
2023-02-03T11:24:02.864Z,96518.81
2023-02-03T11:27:14.973Z,96512.00
2023-02-03T11:29:47.950Z,96506.22
2023-02-03T11:32:23.611Z,96499.28
2023-02-03T11:34:59.219Z,96499.44
2023-02-03T11:37:39.541Z,96500.88
2023-02-03T11:40:11.670Z,96505.00
2023-02-03T11:42:43.738Z,96497.31
2023-02-03T11:45:28.466Z,96493.72
2023-02-03T11:48:24.696Z,96477.59
2023-02-03T11:50:57.752Z,96467.38
2023-02-03T11:53:42.327Z,96470.41
2023-02-03T11:56:20.893Z,96471.13
2023-02-03T11:58:59.913Z,96461.41
2023-02-03T12:13:35.571Z,96435.34
2023-02-03T12:16:22.334Z,96425.75
2023-02-03T12:19:16.001Z,96430.91
2023-02-03T12:22:07.135Z,96412.25
2023-02-03T12:24:53.443Z,96404.84
2023-02-03T12:27:41.818Z,96398.53
2023-02-03T12:30:28.078Z,96373.97
2023-02-03T12:33:00.689Z,96373.41
2023-02-03T12:35:54.425Z,96358.38
2023-02-03T12:38:27.588Z,96352.03
2023-02-03T12:41:04.684Z,96354.66
2023-02-03T12:43:49.402Z,96349.19
2023-02-03T12:46:35.602Z,96335.50
2023-02-03T12:49:05.537Z,96329.41
2023-02-03T12:51:56.772Z,96339.84
2023-02-03T12:54:33.687Z,96318.28
2023-02-03T12:57:27.283Z,96320.69
2023-02-03T13:00:06.195Z,96311.47
2023-02-03T13:02:48.709Z,96307.22
2023-02-03T13:05:25.117Z,96290.44
2023-02-03T13:08:06.705Z,96286.59
2023-02-03T13:10:44.133Z,96282.88
2023-02-03T13:13:15.966Z,96279.94
2023-02-03T13:15:46.867Z,96261.00
2023-02-03T13:18:32.884Z,96253.31
2023-02-03T13:21:00.273Z,96243.31
2023-02-03T13:23:27.493Z,96241.06
2023-02-03T13:27:00.953Z,96222.13
2023-02-03T13:29:33.813Z,96217.13
2023-02-03T13:32:34.703Z,96227.91
2023-02-03T13:35:18.673Z,96217.69
2023-02-03T13:38:10.408Z,96203.34
2023-02-03T13:41:02.453Z,96214.84
2023-02-03T13:43:51.562Z,96215.97
2023-02-03T13:46:32.306Z,96209.31
2023-02-03T13:49:02.477Z,96177.88
2023-02-03T13:51:46.381Z,96194.72
2023-02-03T13:54:26.671Z,96188.72
2023-02-03T13:57:05.585Z,96174.53
2023-02-03T13:59:39.044Z,96156.78
2023-02-03T14:02:24.623Z,96142.28
2023-02-03T14:04:54.626Z,96152.97
2023-02-03T14:07:25.068Z,96138.09
2023-02-03T14:10:13.736Z,96128.78
2023-02-03T14:12:52.575Z,96121.31
2023-02-03T14:15:33.753Z,96098.72
2023-02-03T14:18:04.439Z,96116.88
2023-02-03T14:20:40.545Z,96098.59
2023-02-03T14:23:07.530Z,96103.72
2023-02-03T14:25:59.377Z,96101.78
2023-02-03T14:28:30.411Z,96101.00
2023-02-03T14:31:10.987Z,96091.34
2023-02-03T14:34:13.427Z,96071.69
2023-02-03T14:36:42.470Z,96064.00
2023-02-03T14:39:18.348Z,96073.72
2023-02-03T14:42:03.315Z,96067.25
2023-02-03T14:45:29.237Z,96051.22
2023-02-03T14:48:11.076Z,96048.78
2023-02-03T14:50:55.256Z,96035.97
2023-02-03T14:53:34.964Z,96066.53
2023-02-03T14:56:07.602Z,96058.84
2023-02-03T14:58:45.177Z,96047.28
2023-02-03T15:01:37.980Z,96057.44
2023-02-03T15:04:13.879Z,96084.50
2023-02-03T15:06:43.987Z,96082.59
2023-02-03T15:09:30.561Z,96089.16
2023-02-03T15:11:57.556Z,96091.31
2023-02-03T15:14:33.392Z,96081.09
2023-02-03T15:17:02.835Z,96105.50
2023-02-03T15:19:39.249Z,96094.69
2023-02-03T15:22:38.642Z,96093.41
2023-02-03T15:25:17.554Z,96079.25
2023-02-03T15:27:44.541Z,96091.69
2023-02-03T15:30:28.373Z,96075.16
2023-02-03T15:33:05.704Z,96065.53
2023-02-03T15:35:36.799Z,96071.53
2023-02-03T15:38:09.201Z,96085.38
2023-02-03T15:40:42.472Z,96086.84
2023-02-03T15:43:19.754Z,96103.94
2023-02-03T15:46:06.549Z,96117.97
2023-02-03T15:48:42.354Z,96133.38
2023-02-03T15:51:16.657Z,96141.75
2023-02-03T15:53:54.332Z,96132.97
2023-02-03T15:56:31.152Z,96134.91
2023-02-03T15:58:59.021Z,96136.09
2023-02-03T16:01:28.277Z,96145.56
2023-02-03T16:03:57.692Z,96143.47
2023-02-03T16:06:39.435Z,96160.84
2023-02-03T16:09:23.960Z,96166.75
2023-02-03T16:11:51.064Z,96164.66
2023-02-03T16:14:33.939Z,96160.34
2023-02-03T16:17:05.427Z,96170.31
2023-02-03T16:19:41.450Z,96166.13
2023-02-03T16:22:28.803Z,96181.78
2023-02-03T16:24:56.736Z,96192.47
2023-02-03T16:27:26.884Z,96199.84
2023-02-03T16:30:13.223Z,96208.50
2023-02-03T16:32:59.135Z,96209.75
2023-02-03T16:35:45.047Z,96224.50
2023-02-03T16:38:36.178Z,96204.91
2023-02-03T16:41:31.637Z,96211.38
2023-02-03T16:44:17.375Z,96220.78
2023-02-03T16:47:04.062Z,96215.38
2023-02-03T16:49:49.545Z,96232.94
2023-02-03T16:52:16.795Z,96236.25
2023-02-03T16:54:44.317Z,96222.66
2023-02-03T16:57:11.317Z,96224.41
2023-02-03T16:59:38.305Z,96206.88
2023-02-03T17:02:05.373Z,96215.00
2023-02-03T17:04:33.615Z,96186.28
2023-02-03T17:07:00.636Z,96147.44
2023-02-03T17:09:27.611Z,96168.22
2023-02-03T17:11:55.094Z,96163.88
2023-02-03T17:14:22.214Z,96152.53
2023-02-03T17:16:49.590Z,96150.44
2023-02-03T17:19:16.773Z,96144.44
2023-02-03T17:21:43.795Z,96157.84
2023-02-03T17:24:10.863Z,96169.88
2023-02-03T17:26:37.908Z,96161.47
2023-02-03T17:29:04.917Z,96159.69
2023-02-03T17:31:33.147Z,96153.13
2023-02-03T17:34:00.995Z,96143.94
2023-02-03T17:36:28.045Z,96138.53
2023-02-03T17:55:03.979Z,96154.91
2023-02-03T17:57:32.355Z,96143.63
2023-02-03T18:00:01.179Z,96157.63
2023-02-03T18:02:28.270Z,96169.75
2023-02-03T18:04:55.217Z,96160.38
2023-02-03T18:07:22.365Z,96139.00
2023-02-03T18:09:49.521Z,96133.16
2023-02-03T18:12:16.962Z,96146.78
2023-02-03T18:14:43.974Z,96156.09
2023-02-03T18:17:11.001Z,96150.19
2023-02-03T18:19:38.314Z,96144.56
2023-02-03T18:22:05.938Z,96138.41
2023-02-03T18:24:33.170Z,96144.19
2023-02-03T18:27:00.970Z,96144.97
2023-02-03T18:29:28.669Z,96159.13
2023-02-03T18:31:55.685Z,96149.44
2023-02-03T18:34:22.653Z,96146.16
2023-02-03T18:36:49.811Z,96144.97
2023-02-03T18:39:18.122Z,96134.63
2023-02-03T18:41:45.084Z,96116.13
2023-02-03T18:44:12.238Z,96121.38
2023-02-03T18:46:39.392Z,96117.13
2023-02-03T18:49:09.691Z,96124.59
2023-02-03T18:51:36.967Z,96115.16
2023-02-03T18:54:04.729Z,96113.47
2023-02-03T18:56:35.772Z,96108.47
2023-02-03T18:59:09.266Z,96109.59
2023-02-03T19:01:38.974Z,96105.19
2023-02-03T19:04:06.979Z,96099.09
2023-02-03T19:06:35.304Z,96111.47
2023-02-03T19:09:03.286Z,96100.41
2023-02-03T19:11:30.301Z,96114.94
2023-02-03T19:13:57.405Z,96120.84
2023-02-03T19:16:24.352Z,96123.94
2023-02-03T19:18:51.422Z,96123.94
2023-02-03T19:21:18.490Z,96123.97
2023-02-03T19:23:45.525Z,96135.06
2023-02-03T19:26:12.625Z,96133.44
2023-02-03T19:28:41.053Z,96117.03
2023-02-03T19:31:11.795Z,96128.16
2023-02-03T19:33:39.122Z,96135.19
2023-02-03T19:36:07.601Z,96127.09
2023-02-03T19:38:35.110Z,96129.34
2023-02-03T19:41:02.718Z,96128.97
2023-02-03T19:43:32.507Z,96130.78
2023-02-03T19:46:00.199Z,96126.03
2023-02-03T19:48:27.308Z,96138.84
2023-02-03T19:50:54.326Z,96145.31
2023-02-03T19:53:21.806Z,96133.38
2023-02-03T19:55:48.854Z,96137.91
2023-02-03T19:58:16.106Z,96134.97
2023-02-03T20:00:44.017Z,96145.19
2023-02-03T20:03:11.288Z,96132.31
2023-02-03T20:05:38.839Z,96130.13
2023-02-03T20:08:06.230Z,96126.94
2023-02-03T20:10:33.580Z,96123.19
2023-02-03T20:13:01.277Z,96119.25
2023-02-03T20:15:28.488Z,96114.84
2023-02-03T20:17:55.500Z,96118.09
2023-02-03T20:20:22.886Z,96122.63
2023-02-03T20:22:50.299Z,96117.44
2023-02-03T20:25:17.456Z,96119.72
2023-02-03T20:27:44.552Z,96129.97
2023-02-03T20:30:12.539Z,96123.31
2023-02-03T20:32:39.677Z,96130.84
2023-02-03T20:35:07.511Z,96129.50
2023-02-03T20:37:36.509Z,96128.00
2023-02-03T20:40:10.228Z,96127.19
2023-02-03T20:42:37.348Z,96132.47
2023-02-03T20:45:12.769Z,96128.72
2023-02-03T20:47:39.816Z,96137.94
2023-02-03T20:50:13.016Z,96144.50
2023-02-03T20:52:40.028Z,96138.50
2023-02-03T20:55:12.879Z,96150.19
2023-02-03T20:57:40.299Z,96133.00
2023-02-03T21:00:19.148Z,96150.56
2023-02-03T21:03:06.033Z,96148.72
2023-02-03T21:05:36.797Z,96159.47
2023-02-03T21:08:20.100Z,96146.47
2023-02-03T21:10:48.390Z,96150.66
2023-02-03T21:13:22.314Z,96147.47
2023-02-03T21:15:51.211Z,96157.00
2023-02-03T21:18:40.468Z,96150.34
2023-02-03T21:21:25.142Z,96160.13
2023-02-03T21:23:53.339Z,96164.09
2023-02-03T21:26:27.468Z,96166.28
2023-02-03T21:28:59.300Z,96161.47
2023-02-03T21:31:32.240Z,96165.47
2023-02-03T21:34:04.582Z,96171.53
2023-02-03T21:36:35.566Z,96157.06
2023-02-03T21:39:07.877Z,96143.06
2023-02-03T21:41:35.512Z,96135.47
2023-02-03T21:44:02.474Z,96134.91
2023-02-03T21:46:33.088Z,96141.13
2023-02-03T21:49:01.815Z,96142.91
2023-02-03T21:51:39.598Z,96134.97
2023-02-03T21:54:25.496Z,96136.19
2023-02-03T21:56:54.197Z,96143.03
2023-02-03T21:59:29.718Z,96147.44
2023-02-03T22:02:00.076Z,96150.47
2023-02-03T22:04:28.863Z,96160.72
2023-02-03T22:06:56.565Z,96169.78
2023-02-03T22:09:25.374Z,96161.19
2023-02-03T22:11:52.951Z,96154.38
2023-02-03T22:14:23.227Z,96145.22
2023-02-03T22:16:50.808Z,96151.63
2023-02-03T22:19:17.897Z,96152.47
2023-02-03T22:21:45.182Z,96125.28
2023-02-03T22:24:12.306Z,96114.69
2023-02-03T22:26:39.323Z,96135.34
2023-02-03T22:29:06.257Z,96143.75
2023-02-03T22:31:33.498Z,96153.59
2023-02-03T22:34:00.570Z,96157.97
2023-02-03T22:36:27.573Z,96178.19
2023-02-03T22:38:54.570Z,96190.38
2023-02-03T22:41:21.792Z,96185.97
2023-02-03T22:43:48.936Z,96169.53
2023-02-03T22:46:15.928Z,96162.78
2023-02-03T22:48:43.004Z,96165.59
2023-02-03T22:51:10.056Z,96151.63
2023-02-03T22:53:37.091Z,96149.69
2023-02-03T22:56:04.280Z,96146.91
2023-02-03T22:58:31.295Z,96149.97
2023-02-03T23:00:58.271Z,96129.44
2023-02-03T23:03:25.251Z,96159.25
2023-02-03T23:05:52.253Z,96151.47
2023-02-03T23:08:19.238Z,96160.09
2023-02-03T23:10:46.299Z,96156.72
2023-02-03T23:13:13.263Z,96161.53
2023-02-03T23:15:40.309Z,96149.94
2023-02-03T23:18:07.283Z,96165.34
2023-02-03T23:20:34.343Z,96158.97
2023-02-03T23:23:01.402Z,96151.78
2023-02-03T23:25:28.414Z,96173.38
2023-02-03T23:27:55.397Z,96175.56
2023-02-03T23:30:22.456Z,96203.94
2023-02-03T23:32:49.395Z,96203.94
2023-02-03T23:35:34.892Z,96191.38
2023-02-03T23:38:01.894Z,96177.16
2023-02-03T23:40:29.396Z,96135.22
2023-02-03T23:42:56.636Z,96172.16
2023-02-03T23:45:23.524Z,96171.22
2023-02-03T23:47:50.494Z,96176.22
2023-02-03T23:50:19.164Z,96191.94
2023-02-03T23:52:46.722Z,96180.78
2023-02-03T23:55:16.527Z,96170.59
2023-02-03T23:57:43.697Z,96187.97
